Springbrook, IA (52075)

3:25 AM CDT on June 30, 2015 (GMT -0500)
Maquoketa Weather 1 ( MAQ Middle School) | | Change Station
CLOSE
Current Station
Personal Weather Station
Location: Maquoketa, IA
Elevation: 755 ft
Nearby Weather Stations

Elev 755 ft 42.06 °N, 90.67 °W | Updated 11 minutes ago

Partly Cloudy
Partly Cloudy
52.1 °F
Feels Like 52.1 °F
N
0.0
Wind Variable Wind from SSW

Today
High -- | Low -- °F
--% Chance of Precip.
Yesterday
High -- | Low -- °F
Precip. -- in
5:29 AM 8:42 PM
Waxing Gibbous, 96% visible
Pressure 29.80 in
Visibility 8.0 miles
Clouds Clear
Dew Point 52 °F
Humidity 99%
Rainfall 0.00 in
Snow Depth Not available.
UV 0 out of 12
Pollen 3.70 out of 12
Air Quality Not available.
Flu Activity No Activity
METAR KDBQ 300753Z AUTO 24003KT 8SM CLR 16/14 A2981 RMK AO2 SLP090 T01560144

More Conditions Fewer Conditions

Pressure 29.80 in
Visibility 8.0 miles
Clouds Clear
Dew Point 52 °F
Humidity 99%
Rainfall 0.00 in
Snow Depth Not available.
UV 0 out of 12
Pollen 3.70 out of 12
Air Quality Not available.
Flu Activity No Activity
METAR KDBQ 300753Z AUTO 24003KT 8SM CLR 16/14 A2981 RMK AO2 SLP090 T01560144

More Conditions Fewer Conditions

10-Day Weather Forecast

×

Almanac

Astronomy

Jun. 30, 2015 Rise Set
Actual Time
Civil Twilight
Nautical Twilight
Astronomical Twilight
Moon
Length of Visible Light
Length of Day
Tomorrow will be .
, % of the Moon is Illuminated

Today's Extremes

State Highs State Lows

Community

WunderPhotos

Upload Photos

1,833,976 photos uploaded!

WunderBlogs® & News

Nearby

Air Quality

  Air Quality AQ Index Pollutant
Not available.

Snow Depth

Station Depth Elevation

Earthquake Activity

City Distance Mag. Time & Date
Minimum magnitude displayed is 2.5.

Coastal Water Temperatures

Place Temperature

Stations

Nearby Weather Stations

Station Location Temp. Windchill Dew Point Humidity Wind Precip. Elev Updated Type